sensor_id;sensor_type;location;lat;lon;timestamp;P1;durP1;ratioP1;P2;durP2;ratioP2
37641;SDS011;23486;51.956;5.888;2023-10-31T00:01:02;2.78;;;0.50;;
37641;SDS011;23486;51.956;5.888;2023-10-31T00:03:28;4.38;;;0.50;;
37641;SDS011;23486;51.956;5.888;2023-10-31T00:05:53;1.30;;;0.38;;
37641;SDS011;23486;51.956;5.888;2023-10-31T00:08:19;1.98;;;0.30;;
37641;SDS011;23486;51.956;5.888;2023-10-31T00:10:44;1.77;;;0.47;;
37641;SDS011;23486;51.956;5.888;2023-10-31T00:13:11;2.10;;;0.50;;
37641;SDS011;23486;51.956;5.888;2023-10-31T00:15:37;1.88;;;0.40;;
37641;SDS011;23486;51.956;5.888;2023-10-31T00:18:02;1.60;;;0.50;;
37641;SDS011;23486;51.956;5.888;2023-10-31T00:20:28;2.00;;;0.40;;
37641;SDS011;23486;51.956;5.888;2023-10-31T00:22:54;2.60;;;0.52;;
37641;SDS011;23486;51.956;5.888;2023-10-31T00:25:20;2.25;;;0.30;;
37641;SDS011;23486;51.956;5.888;2023-10-31T00:27:45;2.05;;;0.40;;
37641;SDS011;23486;51.956;5.888;2023-10-31T00:30:11;2.22;;;0.30;;
37641;SDS011;23486;51.956;5.888;2023-10-31T00:32:36;1.88;;;0.40;;
37641;SDS011;23486;51.956;5.888;2023-10-31T00:35:02;1.83;;;0.40;;
37641;SDS011;23486;51.956;5.888;2023-10-31T00:37:28;3.58;;;0.50;;
37641;SDS011;23486;51.956;5.888;2023-10-31T00:39:53;2.60;;;0.50;;
37641;SDS011;23486;51.956;5.888;2023-10-31T00:42:19;1.52;;;0.40;;
37641;SDS011;23486;51.956;5.888;2023-10-31T00:44:44;4.85;;;0.50;;
37641;SDS011;23486;51.956;5.888;2023-10-31T00:47:10;2.63;;;0.70;;
37641;SDS011;23486;51.956;5.888;2023-10-31T00:49:36;4.78;;;0.70;;
37641;SDS011;23486;51.956;5.888;2023-10-31T00:52:01;3.80;;;0.50;;
37641;SDS011;23486;51.956;5.888;2023-10-31T00:54:27;2.60;;;0.80;;
37641;SDS011;23486;51.956;5.888;2023-10-31T00:56:52;4.43;;;0.85;;
37641;SDS011;23486;51.956;5.888;2023-10-31T00:59:18;2.42;;;0.60;;
37641;SDS011;23486;51.956;5.888;2023-10-31T01:01:44;3.42;;;0.60;;
37641;SDS011;23486;51.956;5.888;2023-10-31T01:04:09;3.22;;;0.88;;
37641;SDS011;23486;51.956;5.888;2023-10-31T01:06:41;2.78;;;0.57;;
37641;SDS011;23486;51.956;5.888;2023-10-31T01:09:07;2.33;;;0.57;;
37641;SDS011;23486;51.956;5.888;2023-10-31T01:11:34;2.70;;;0.73;;
37641;SDS011;23486;51.956;5.888;2023-10-31T01:14:00;4.40;;;1.00;;
37641;SDS011;23486;51.956;5.888;2023-10-31T01:16:26;5.80;;;2.33;;
37641;SDS011;23486;51.956;5.888;2023-10-31T01:18:52;8.25;;;3.35;;
37641;SDS011;23486;51.956;5.888;2023-10-31T01:21:17;9.13;;;3.47;;
37641;SDS011;23486;51.956;5.888;2023-10-31T01:23:43;8.35;;;3.10;;
37641;SDS011;23486;51.956;5.888;2023-10-31T01:26:08;10.98;;;5.55;;
37641;SDS011;23486;51.956;5.888;2023-10-31T01:28:34;13.20;;;6.55;;
37641;SDS011;23486;51.956;5.888;2023-10-31T01:31:00;13.82;;;7.40;;
37641;SDS011;23486;51.956;5.888;2023-10-31T01:33:25;15.52;;;8.60;;
37641;SDS011;23486;51.956;5.888;2023-10-31T01:35:51;15.85;;;7.93;;
37641;SDS011;23486;51.956;5.888;2023-10-31T01:38:16;15.13;;;8.05;;
37641;SDS011;23486;51.956;5.888;2023-10-31T01:40:42;15.48;;;9.02;;
37641;SDS011;23486;51.956;5.888;2023-10-31T01:43:09;17.30;;;8.63;;
37641;SDS011;23486;51.956;5.888;2023-10-31T01:45:35;19.65;;;10.65;;
37641;SDS011;23486;51.956;5.888;2023-10-31T01:48:00;20.10;;;9.70;;
37641;SDS011;23486;51.956;5.888;2023-10-31T01:50:26;17.67;;;9.82;;
37641;SDS011;23486;51.956;5.888;2023-10-31T01:52:52;17.08;;;9.32;;
37641;SDS011;23486;51.956;5.888;2023-10-31T01:55:18;18.55;;;9.48;;
37641;SDS011;23486;51.956;5.888;2023-10-31T01:57:44;17.58;;;9.52;;
37641;SDS011;23486;51.956;5.888;2023-10-31T02:00:12;21.52;;;12.25;;
37641;SDS011;23486;51.956;5.888;2023-10-31T02:02:40;21.40;;;11.02;;
37641;SDS011;23486;51.956;5.888;2023-10-31T02:05:09;25.27;;;12.75;;
37641;SDS011;23486;51.956;5.888;2023-10-31T02:07:34;23.75;;;13.07;;
37641;SDS011;23486;51.956;5.888;2023-10-31T02:10:00;25.30;;;13.63;;
37641;SDS011;23486;51.956;5.888;2023-10-31T02:12:35;22.20;;;12.23;;
37641;SDS011;23486;51.956;5.888;2023-10-31T02:15:02;17.83;;;11.68;;
37641;SDS011;23486;51.956;5.888;2023-10-31T02:17:28;24.30;;;14.05;;
37641;SDS011;23486;51.956;5.888;2023-10-31T02:19:54;22.45;;;12.65;;
37641;SDS011;23486;51.956;5.888;2023-10-31T02:22:20;20.50;;;12.63;;
37641;SDS011;23486;51.956;5.888;2023-10-31T02:24:46;17.08;;;11.13;;
37641;SDS011;23486;51.956;5.888;2023-10-31T02:27:12;16.88;;;10.60;;
37641;SDS011;23486;51.956;5.888;2023-10-31T02:29:38;19.35;;;10.45;;
37641;SDS011;23486;51.956;5.888;2023-10-31T02:32:05;19.42;;;10.68;;
37641;SDS011;23486;51.956;5.888;2023-10-31T02:34:31;16.15;;;10.15;;
37641;SDS011;23486;51.956;5.888;2023-10-31T02:36:56;17.17;;;10.43;;
37641;SDS011;23486;51.956;5.888;2023-10-31T02:39:22;19.25;;;11.85;;
37641;SDS011;23486;51.956;5.888;2023-10-31T02:41:47;17.35;;;10.52;;
37641;SDS011;23486;51.956;5.888;2023-10-31T02:44:14;17.85;;;10.30;;
37641;SDS011;23486;51.956;5.888;2023-10-31T02:46:40;17.58;;;10.05;;
37641;SDS011;23486;51.956;5.888;2023-10-31T02:49:06;22.20;;;11.90;;
37641;SDS011;23486;51.956;5.888;2023-10-31T02:51:34;20.35;;;11.48;;
37641;SDS011;23486;51.956;5.888;2023-10-31T02:53:59;21.05;;;12.60;;
37641;SDS011;23486;51.956;5.888;2023-10-31T02:56:25;21.50;;;12.60;;
37641;SDS011;23486;51.956;5.888;2023-10-31T02:58:50;21.33;;;11.70;;
37641;SDS011;23486;51.956;5.888;2023-10-31T03:01:16;21.48;;;11.27;;
37641;SDS011;23486;51.956;5.888;2023-10-31T03:03:43;23.92;;;11.50;;
37641;SDS011;23486;51.956;5.888;2023-10-31T03:06:08;21.33;;;11.52;;
37641;SDS011;23486;51.956;5.888;2023-10-31T03:08:34;20.98;;;11.48;;
37641;SDS011;23486;51.956;5.888;2023-10-31T03:10:59;21.83;;;12.80;;
37641;SDS011;23486;51.956;5.888;2023-10-31T03:13:25;20.42;;;13.13;;
37641;SDS011;23486;51.956;5.888;2023-10-31T03:15:51;24.23;;;12.32;;
37641;SDS011;23486;51.956;5.888;2023-10-31T03:18:16;22.85;;;13.95;;
37641;SDS011;23486;51.956;5.888;2023-10-31T03:20:45;22.63;;;14.48;;
37641;SDS011;23486;51.956;5.888;2023-10-31T03:23:13;20.42;;;12.25;;
37641;SDS011;23486;51.956;5.888;2023-10-31T03:25:39;21.88;;;13.38;;
37641;SDS011;23486;51.956;5.888;2023-10-31T03:28:17;22.83;;;13.65;;
37641;SDS011;23486;51.956;5.888;2023-10-31T03:30:44;25.38;;;15.00;;
37641;SDS011;23486;51.956;5.888;2023-10-31T03:33:11;21.17;;;12.68;;
37641;SDS011;23486;51.956;5.888;2023-10-31T03:35:37;24.00;;;14.27;;
37641;SDS011;23486;51.956;5.888;2023-10-31T03:38:02;25.58;;;14.68;;
37641;SDS011;23486;51.956;5.888;2023-10-31T03:40:28;20.35;;;12.00;;
37641;SDS011;23486;51.956;5.888;2023-10-31T03:42:54;23.52;;;15.00;;
37641;SDS011;23486;51.956;5.888;2023-10-31T03:45:19;24.55;;;14.77;;
37641;SDS011;23486;51.956;5.888;2023-10-31T03:47:45;27.98;;;16.77;;
37641;SDS011;23486;51.956;5.888;2023-10-31T03:50:10;26.70;;;16.15;;
37641;SDS011;23486;51.956;5.888;2023-10-31T03:52:36;24.00;;;15.75;;
37641;SDS011;23486;51.956;5.888;2023-10-31T03:55:01;29.27;;;15.43;;
37641;SDS011;23486;51.956;5.888;2023-10-31T03:57:27;26.58;;;15.52;;
37641;SDS011;23486;51.956;5.888;2023-10-31T03:59:53;24.15;;;14.13;;
37641;SDS011;23486;51.956;5.888;2023-10-31T04:02:18;25.98;;;13.50;;
37641;SDS011;23486;51.956;5.888;2023-10-31T04:04:44;21.42;;;12.02;;
37641;SDS011;23486;51.956;5.888;2023-10-31T04:07:09;19.75;;;12.85;;
37641;SDS011;23486;51.956;5.888;2023-10-31T04:09:35;19.48;;;10.95;;
37641;SDS011;23486;51.956;5.888;2023-10-31T04:12:00;23.15;;;12.02;;
37641;SDS011;23486;51.956;5.888;2023-10-31T04:14:26;16.58;;;8.93;;
37641;SDS011;23486;51.956;5.888;2023-10-31T04:16:52;17.42;;;9.30;;
37641;SDS011;23486;51.956;5.888;2023-10-31T04:19:17;16.42;;;8.02;;
37641;SDS011;23486;51.956;5.888;2023-10-31T04:21:43;15.80;;;8.57;;
37641;SDS011;23486;51.956;5.888;2023-10-31T04:24:09;12.98;;;6.18;;
37641;SDS011;23486;51.956;5.888;2023-10-31T04:26:34;11.35;;;6.10;;
37641;SDS011;23486;51.956;5.888;2023-10-31T04:29:00;12.82;;;5.40;;
37641;SDS011;23486;51.956;5.888;2023-10-31T04:31:25;10.35;;;5.47;;
37641;SDS011;23486;51.956;5.888;2023-10-31T04:33:51;9.55;;;4.10;;
37641;SDS011;23486;51.956;5.888;2023-10-31T04:36:16;8.93;;;4.95;;
37641;SDS011;23486;51.956;5.888;2023-10-31T04:38:42;10.05;;;4.38;;
37641;SDS011;23486;51.956;5.888;2023-10-31T04:41:08;7.85;;;4.05;;
37641;SDS011;23486;51.956;5.888;2023-10-31T04:43:34;7.97;;;4.40;;
37641;SDS011;23486;51.956;5.888;2023-10-31T04:46:00;9.30;;;4.10;;
37641;SDS011;23486;51.956;5.888;2023-10-31T04:48:25;11.52;;;4.93;;
37641;SDS011;23486;51.956;5.888;2023-10-31T04:50:51;12.07;;;5.28;;
37641;SDS011;23486;51.956;5.888;2023-10-31T04:53:17;11.15;;;6.03;;
37641;SDS011;23486;51.956;5.888;2023-10-31T04:55:42;11.15;;;6.13;;
37641;SDS011;23486;51.956;5.888;2023-10-31T04:58:08;14.13;;;6.60;;
37641;SDS011;23486;51.956;5.888;2023-10-31T05:00:33;14.77;;;7.47;;
37641;SDS011;23486;51.956;5.888;2023-10-31T05:02:59;10.32;;;6.15;;
37641;SDS011;23486;51.956;5.888;2023-10-31T05:05:26;13.35;;;7.95;;
37641;SDS011;23486;51.956;5.888;2023-10-31T05:07:51;13.75;;;8.48;;
37641;SDS011;23486;51.956;5.888;2023-10-31T05:10:17;11.48;;;7.07;;
37641;SDS011;23486;51.956;5.888;2023-10-31T05:12:43;12.30;;;7.30;;
37641;SDS011;23486;51.956;5.888;2023-10-31T05:15:08;15.35;;;8.10;;
37641;SDS011;23486;51.956;5.888;2023-10-31T05:17:34;10.88;;;6.68;;
37641;SDS011;23486;51.956;5.888;2023-10-31T05:20:00;17.00;;;8.90;;
37641;SDS011;23486;51.956;5.888;2023-10-31T05:22:25;17.00;;;9.05;;
37641;SDS011;23486;51.956;5.888;2023-10-31T05:24:51;14.98;;;8.27;;
37641;SDS011;23486;51.956;5.888;2023-10-31T05:27:16;15.63;;;8.88;;
37641;SDS011;23486;51.956;5.888;2023-10-31T05:29:42;16.42;;;9.25;;
37641;SDS011;23486;51.956;5.888;2023-10-31T05:32:08;17.00;;;8.95;;
37641;SDS011;23486;51.956;5.888;2023-10-31T05:34:34;14.02;;;8.82;;
37641;SDS011;23486;51.956;5.888;2023-10-31T05:36:59;13.18;;;8.40;;
37641;SDS011;23486;51.956;5.888;2023-10-31T05:39:25;12.43;;;9.05;;
37641;SDS011;23486;51.956;5.888;2023-10-31T05:41:51;14.88;;;9.05;;
37641;SDS011;23486;51.956;5.888;2023-10-31T05:44:17;17.73;;;10.00;;
37641;SDS011;23486;51.956;5.888;2023-10-31T05:46:42;12.52;;;7.63;;
37641;SDS011;23486;51.956;5.888;2023-10-31T05:49:08;13.60;;;7.80;;
37641;SDS011;23486;51.956;5.888;2023-10-31T05:51:35;13.48;;;6.95;;
37641;SDS011;23486;51.956;5.888;2023-10-31T05:54:00;12.35;;;5.70;;
37641;SDS011;23486;51.956;5.888;2023-10-31T05:56:26;12.50;;;5.55;;
37641;SDS011;23486;51.956;5.888;2023-10-31T05:58:52;9.02;;;4.35;;
37641;SDS011;23486;51.956;5.888;2023-10-31T06:01:17;10.55;;;4.57;;
37641;SDS011;23486;51.956;5.888;2023-10-31T06:03:43;7.60;;;3.58;;
37641;SDS011;23486;51.956;5.888;2023-10-31T06:06:10;7.45;;;3.08;;
37641;SDS011;23486;51.956;5.888;2023-10-31T06:08:36;7.40;;;2.72;;
37641;SDS011;23486;51.956;5.888;2023-10-31T06:11:03;6.55;;;2.10;;
37641;SDS011;23486;51.956;5.888;2023-10-31T06:13:28;5.72;;;2.42;;
37641;SDS011;23486;51.956;5.888;2023-10-31T06:15:56;6.82;;;2.08;;
37641;SDS011;23486;51.956;5.888;2023-10-31T06:18:25;5.25;;;2.17;;
37641;SDS011;23486;51.956;5.888;2023-10-31T06:20:51;4.60;;;1.95;;
37641;SDS011;23486;51.956;5.888;2023-10-31T06:23:17;5.05;;;1.83;;
37641;SDS011;23486;51.956;5.888;2023-10-31T06:25:43;10.27;;;2.03;;
37641;SDS011;23486;51.956;5.888;2023-10-31T06:28:08;6.70;;;2.35;;
37641;SDS011;23486;51.956;5.888;2023-10-31T06:30:34;5.10;;;1.75;;
37641;SDS011;23486;51.956;5.888;2023-10-31T06:33:00;6.45;;;1.60;;
37641;SDS011;23486;51.956;5.888;2023-10-31T06:35:25;4.80;;;1.90;;
37641;SDS011;23486;51.956;5.888;2023-10-31T06:37:52;4.60;;;1.88;;
37641;SDS011;23486;51.956;5.888;2023-10-31T06:40:19;6.88;;;1.60;;
37641;SDS011;23486;51.956;5.888;2023-10-31T06:42:45;7.68;;;2.05;;
37641;SDS011;23486;51.956;5.888;2023-10-31T06:45:10;9.45;;;3.65;;
37641;SDS011;23486;51.956;5.888;2023-10-31T06:47:36;11.15;;;4.63;;
37641;SDS011;23486;51.956;5.888;2023-10-31T06:50:01;12.60;;;5.68;;
37641;SDS011;23486;51.956;5.888;2023-10-31T06:52:27;11.93;;;4.90;;
37641;SDS011;23486;51.956;5.888;2023-10-31T06:54:53;14.07;;;6.10;;
37641;SDS011;23486;51.956;5.888;2023-10-31T06:57:19;13.70;;;6.63;;
37641;SDS011;23486;51.956;5.888;2023-10-31T06:59:44;17.67;;;7.45;;
37641;SDS011;23486;51.956;5.888;2023-10-31T07:02:11;17.83;;;7.72;;
37641;SDS011;23486;51.956;5.888;2023-10-31T07:04:36;15.48;;;7.90;;
37641;SDS011;23486;51.956;5.888;2023-10-31T07:07:02;14.98;;;7.65;;
37641;SDS011;23486;51.956;5.888;2023-10-31T07:09:27;17.25;;;8.15;;
37641;SDS011;23486;51.956;5.888;2023-10-31T07:11:54;19.73;;;8.73;;
37641;SDS011;23486;51.956;5.888;2023-10-31T07:14:19;16.45;;;8.63;;
37641;SDS011;23486;51.956;5.888;2023-10-31T07:16:45;20.63;;;9.23;;
37641;SDS011;23486;51.956;5.888;2023-10-31T07:19:11;15.88;;;8.63;;
37641;SDS011;23486;51.956;5.888;2023-10-31T07:21:36;22.00;;;9.95;;
37641;SDS011;23486;51.956;5.888;2023-10-31T07:24:02;19.52;;;10.73;;
37641;SDS011;23486;51.956;5.888;2023-10-31T07:26:27;25.77;;;12.80;;
37641;SDS011;23486;51.956;5.888;2023-10-31T07:28:53;27.02;;;11.45;;
37641;SDS011;23486;51.956;5.888;2023-10-31T07:31:19;22.80;;;11.93;;
37641;SDS011;23486;51.956;5.888;2023-10-31T07:33:45;23.23;;;12.73;;
37641;SDS011;23486;51.956;5.888;2023-10-31T07:36:11;28.60;;;15.13;;
37641;SDS011;23486;51.956;5.888;2023-10-31T07:38:37;28.85;;;15.70;;
37641;SDS011;23486;51.956;5.888;2023-10-31T07:41:02;32.42;;;16.95;;
37641;SDS011;23486;51.956;5.888;2023-10-31T07:43:28;28.80;;;16.45;;
37641;SDS011;23486;51.956;5.888;2023-10-31T07:45:54;28.50;;;15.15;;
37641;SDS011;23486;51.956;5.888;2023-10-31T07:48:19;27.23;;;15.88;;
37641;SDS011;23486;51.956;5.888;2023-10-31T07:50:45;29.73;;;15.95;;
37641;SDS011;23486;51.956;5.888;2023-10-31T07:53:11;32.78;;;17.30;;
37641;SDS011;23486;51.956;5.888;2023-10-31T07:55:36;31.05;;;17.45;;
37641;SDS011;23486;51.956;5.888;2023-10-31T07:58:02;33.65;;;18.23;;
37641;SDS011;23486;51.956;5.888;2023-10-31T08:00:27;35.58;;;18.63;;
37641;SDS011;23486;51.956;5.888;2023-10-31T08:02:53;34.80;;;19.30;;
37641;SDS011;23486;51.956;5.888;2023-10-31T08:05:18;30.40;;;17.08;;
37641;SDS011;23486;51.956;5.888;2023-10-31T08:07:44;27.77;;;16.92;;
37641;SDS011;23486;51.956;5.888;2023-10-31T08:10:10;33.72;;;19.45;;
37641;SDS011;23486;51.956;5.888;2023-10-31T08:12:35;29.65;;;17.55;;
37641;SDS011;23486;51.956;5.888;2023-10-31T08:15:01;33.13;;;18.02;;
37641;SDS011;23486;51.956;5.888;2023-10-31T08:17:27;32.50;;;19.13;;
37641;SDS011;23486;51.956;5.888;2023-10-31T08:19:53;30.95;;;17.08;;
37641;SDS011;23486;51.956;5.888;2023-10-31T08:22:18;28.45;;;15.80;;
37641;SDS011;23486;51.956;5.888;2023-10-31T08:24:44;25.60;;;16.00;;
37641;SDS011;23486;51.956;5.888;2023-10-31T08:27:09;28.23;;;17.17;;
37641;SDS011;23486;51.956;5.888;2023-10-31T08:29:36;28.73;;;16.48;;
37641;SDS011;23486;51.956;5.888;2023-10-31T08:32:01;26.77;;;15.88;;
37641;SDS011;23486;51.956;5.888;2023-10-31T08:34:27;24.88;;;14.20;;
37641;SDS011;23486;51.956;5.888;2023-10-31T08:36:53;20.95;;;12.70;;
37641;SDS011;23486;51.956;5.888;2023-10-31T08:39:18;23.02;;;13.23;;
37641;SDS011;23486;51.956;5.888;2023-10-31T08:41:51;19.42;;;11.88;;
37641;SDS011;23486;51.956;5.888;2023-10-31T08:44:20;17.92;;;10.50;;
37641;SDS011;23486;51.956;5.888;2023-10-31T08:46:46;16.70;;;10.15;;
37641;SDS011;23486;51.956;5.888;2023-10-31T08:49:12;16.50;;;9.52;;
37641;SDS011;23486;51.956;5.888;2023-10-31T08:51:38;19.45;;;9.95;;
37641;SDS011;23486;51.956;5.888;2023-10-31T08:54:03;16.73;;;9.52;;
37641;SDS011;23486;51.956;5.888;2023-10-31T08:56:29;14.25;;;8.23;;
37641;SDS011;23486;51.956;5.888;2023-10-31T08:58:55;13.93;;;8.43;;
37641;SDS011;23486;51.956;5.888;2023-10-31T09:01:20;12.68;;;7.93;;
37641;SDS011;23486;51.956;5.888;2023-10-31T09:03:46;14.85;;;8.82;;
37641;SDS011;23486;51.956;5.888;2023-10-31T09:06:11;19.63;;;9.13;;
37641;SDS011;23486;51.956;5.888;2023-10-31T09:08:37;16.27;;;9.45;;
37641;SDS011;23486;51.956;5.888;2023-10-31T09:11:04;16.77;;;8.82;;
37641;SDS011;23486;51.956;5.888;2023-10-31T09:13:30;16.52;;;8.65;;
37641;SDS011;23486;51.956;5.888;2023-10-31T09:15:57;16.77;;;9.77;;
37641;SDS011;23486;51.956;5.888;2023-10-31T09:18:23;17.10;;;10.68;;
37641;SDS011;23486;51.956;5.888;2023-10-31T09:20:49;16.25;;;8.82;;
37641;SDS011;23486;51.956;5.888;2023-10-31T09:23:15;16.33;;;9.30;;
37641;SDS011;23486;51.956;5.888;2023-10-31T09:25:42;17.60;;;9.18;;
37641;SDS011;23486;51.956;5.888;2023-10-31T09:28:08;13.32;;;8.52;;
37641;SDS011;23486;51.956;5.888;2023-10-31T09:30:33;13.77;;;8.20;;
37641;SDS011;23486;51.956;5.888;2023-10-31T09:32:59;15.30;;;8.57;;
37641;SDS011;23486;51.956;5.888;2023-10-31T09:35:25;13.00;;;7.18;;
37641;SDS011;23486;51.956;5.888;2023-10-31T09:37:51;12.82;;;7.28;;
37641;SDS011;23486;51.956;5.888;2023-10-31T09:40:17;15.85;;;8.95;;
37641;SDS011;23486;51.956;5.888;2023-10-31T09:42:46;15.75;;;9.57;;
37641;SDS011;23486;51.956;5.888;2023-10-31T09:45:12;19.73;;;12.23;;
37641;SDS011;23486;51.956;5.888;2023-10-31T09:47:38;20.80;;;14.48;;
37641;SDS011;23486;51.956;5.888;2023-10-31T09:50:05;21.55;;;14.60;;
37641;SDS011;23486;51.956;5.888;2023-10-31T09:52:33;21.52;;;13.82;;
37641;SDS011;23486;51.956;5.888;2023-10-31T09:55:00;23.70;;;15.02;;
37641;SDS011;23486;51.956;5.888;2023-10-31T09:57:27;23.58;;;14.93;;
37641;SDS011;23486;51.956;5.888;2023-10-31T09:59:53;20.52;;;13.50;;
37641;SDS011;23486;51.956;5.888;2023-10-31T10:02:18;27.00;;;16.58;;
37641;SDS011;23486;51.956;5.888;2023-10-31T10:04:44;23.67;;;16.63;;
37641;SDS011;23486;51.956;5.888;2023-10-31T10:07:13;24.83;;;16.33;;
37641;SDS011;23486;51.956;5.888;2023-10-31T10:09:41;20.17;;;14.90;;
37641;SDS011;23486;51.956;5.888;2023-10-31T10:12:08;20.77;;;16.00;;
37641;SDS011;23486;51.956;5.888;2023-10-31T10:14:37;22.83;;;15.45;;
37641;SDS011;23486;51.956;5.888;2023-10-31T10:17:22;23.00;;;15.00;;
37641;SDS011;23486;51.956;5.888;2023-10-31T10:20:08;19.55;;;15.25;;
37641;SDS011;23486;51.956;5.888;2023-10-31T10:22:36;18.80;;;15.45;;
37641;SDS011;23486;51.956;5.888;2023-10-31T10:25:04;20.50;;;14.45;;
37641;SDS011;23486;51.956;5.888;2023-10-31T10:27:33;20.05;;;14.13;;
37641;SDS011;23486;51.956;5.888;2023-10-31T10:30:01;18.45;;;12.30;;
37641;SDS011;23486;51.956;5.888;2023-10-31T10:32:28;15.35;;;11.52;;
37641;SDS011;23486;51.956;5.888;2023-10-31T10:34:54;17.38;;;12.25;;
37641;SDS011;23486;51.956;5.888;2023-10-31T10:37:19;14.90;;;11.25;;
37641;SDS011;23486;51.956;5.888;2023-10-31T10:39:47;15.23;;;10.15;;
37641;SDS011;23486;51.956;5.888;2023-10-31T10:42:15;11.52;;;8.05;;
37641;SDS011;23486;51.956;5.888;2023-10-31T10:44:44;12.63;;;9.00;;
37641;SDS011;23486;51.956;5.888;2023-10-31T10:47:09;11.77;;;9.02;;
37641;SDS011;23486;51.956;5.888;2023-10-31T10:49:37;14.25;;;10.02;;
37641;SDS011;23486;51.956;5.888;2023-10-31T10:52:22;15.02;;;9.57;;
37641;SDS011;23486;51.956;5.888;2023-10-31T10:55:08;18.73;;;11.10;;
37641;SDS011;23486;51.956;5.888;2023-10-31T10:57:42;17.17;;;10.60;;
37641;SDS011;23486;51.956;5.888;2023-10-31T11:02:40;10.27;;;7.90;;
37641;SDS011;23486;51.956;5.888;2023-10-31T11:05:08;13.30;;;10.40;;
37641;SDS011;23486;51.956;5.888;2023-10-31T11:07:34;17.60;;;9.85;;
37641;SDS011;23486;51.956;5.888;2023-10-31T11:10:02;11.70;;;8.95;;
37641;SDS011;23486;51.956;5.888;2023-10-31T11:12:30;15.07;;;9.82;;
37641;SDS011;23486;51.956;5.888;2023-10-31T11:14:59;14.00;;;10.65;;
37641;SDS011;23486;51.956;5.888;2023-10-31T11:17:28;25.55;;;16.55;;
37641;SDS011;23486;51.956;5.888;2023-10-31T11:19:59;22.55;;;17.48;;
37641;SDS011;23486;51.956;5.888;2023-10-31T11:22:25;25.00;;;19.65;;
37641;SDS011;23486;51.956;5.888;2023-10-31T11:25:09;25.83;;;20.10;;
37641;SDS011;23486;51.956;5.888;2023-10-31T11:27:37;25.23;;;20.27;;
37641;SDS011;23486;51.956;5.888;2023-10-31T11:30:09;33.50;;;23.90;;
37641;SDS011;23486;51.956;5.888;2023-10-31T11:32:55;31.45;;;22.50;;
37641;SDS011;23486;51.956;5.888;2023-10-31T11:35:23;29.95;;;23.30;;
37641;SDS011;23486;51.956;5.888;2023-10-31T11:37:49;34.97;;;24.48;;
37641;SDS011;23486;51.956;5.888;2023-10-31T11:40:31;30.45;;;22.00;;
37641;SDS011;23486;51.956;5.888;2023-10-31T11:42:57;31.88;;;23.15;;
37641;SDS011;23486;51.956;5.888;2023-10-31T11:47:53;31.00;;;22.90;;
37641;SDS011;23486;51.956;5.888;2023-10-31T11:50:19;33.83;;;22.88;;
37641;SDS011;23486;51.956;5.888;2023-10-31T11:52:46;34.22;;;23.27;;
37641;SDS011;23486;51.956;5.888;2023-10-31T11:55:36;31.40;;;22.10;;
37641;SDS011;23486;51.956;5.888;2023-10-31T12:00:47;28.98;;;21.08;;
37641;SDS011;23486;51.956;5.888;2023-10-31T12:03:17;31.08;;;20.42;;
37641;SDS011;23486;51.956;5.888;2023-10-31T12:05:51;28.33;;;20.20;;
37641;SDS011;23486;51.956;5.888;2023-10-31T12:08:24;27.35;;;18.75;;
37641;SDS011;23486;51.956;5.888;2023-10-31T12:10:51;27.20;;;19.08;;
37641;SDS011;23486;51.956;5.888;2023-10-31T12:13:16;30.60;;;20.02;;
37641;SDS011;23486;51.956;5.888;2023-10-31T12:15:52;30.77;;;20.75;;
37641;SDS011;23486;51.956;5.888;2023-10-31T12:18:18;32.30;;;20.25;;
37641;SDS011;23486;51.956;5.888;2023-10-31T12:21:02;28.83;;;18.92;;
37641;SDS011;23486;51.956;5.888;2023-10-31T12:23:28;30.98;;;19.52;;
37641;SDS011;23486;51.956;5.888;2023-10-31T12:25:54;30.50;;;18.55;;
37641;SDS011;23486;51.956;5.888;2023-10-31T12:28:20;28.63;;;17.17;;
37641;SDS011;23486;51.956;5.888;2023-10-31T12:30:47;26.23;;;17.27;;
37641;SDS011;23486;51.956;5.888;2023-10-31T12:33:13;32.15;;;18.05;;
37641;SDS011;23486;51.956;5.888;2023-10-31T12:35:40;29.30;;;18.27;;
37641;SDS011;23486;51.956;5.888;2023-10-31T12:38:06;35.53;;;20.38;;
37641;SDS011;23486;51.956;5.888;2023-10-31T12:40:34;30.60;;;18.15;;
37641;SDS011;23486;51.956;5.888;2023-10-31T12:43:00;33.92;;;18.88;;
37641;SDS011;23486;51.956;5.888;2023-10-31T12:45:28;31.45;;;19.80;;
37641;SDS011;23486;51.956;5.888;2023-10-31T12:48:00;32.25;;;19.02;;
37641;SDS011;23486;51.956;5.888;2023-10-31T12:50:48;27.65;;;15.65;;
37641;SDS011;23486;51.956;5.888;2023-10-31T12:53:22;29.42;;;17.45;;
37641;SDS011;23486;51.956;5.888;2023-10-31T12:55:48;26.75;;;15.50;;
37641;SDS011;23486;51.956;5.888;2023-10-31T12:58:20;30.50;;;16.92;;
37641;SDS011;23486;51.956;5.888;2023-10-31T13:00:45;25.15;;;15.30;;
37641;SDS011;23486;51.956;5.888;2023-10-31T13:03:11;24.73;;;15.45;;
37641;SDS011;23486;51.956;5.888;2023-10-31T13:05:37;30.65;;;17.95;;
37641;SDS011;23486;51.956;5.888;2023-10-31T13:08:08;29.38;;;17.38;;
37641;SDS011;23486;51.956;5.888;2023-10-31T13:10:44;29.40;;;17.42;;
37641;SDS011;23486;51.956;5.888;2023-10-31T13:13:09;30.70;;;18.10;;
37641;SDS011;23486;51.956;5.888;2023-10-31T13:15:37;27.42;;;17.33;;
37641;SDS011;23486;51.956;5.888;2023-10-31T13:18:04;28.83;;;16.83;;
37641;SDS011;23486;51.956;5.888;2023-10-31T13:20:30;29.42;;;17.65;;
37641;SDS011;23486;51.956;5.888;2023-10-31T13:22:56;26.50;;;15.65;;
37641;SDS011;23486;51.956;5.888;2023-10-31T13:25:22;26.77;;;17.17;;
37641;SDS011;23486;51.956;5.888;2023-10-31T13:27:48;27.95;;;16.77;;
37641;SDS011;23486;51.956;5.888;2023-10-31T13:30:17;24.27;;;16.13;;
37641;SDS011;23486;51.956;5.888;2023-10-31T13:32:44;25.85;;;16.27;;
37641;SDS011;23486;51.956;5.888;2023-10-31T13:35:09;24.98;;;16.33;;
37641;SDS011;23486;51.956;5.888;2023-10-31T13:37:35;24.10;;;16.25;;
37641;SDS011;23486;51.956;5.888;2023-10-31T13:40:04;23.67;;;15.02;;
37641;SDS011;23486;51.956;5.888;2023-10-31T13:42:30;25.80;;;16.02;;
37641;SDS011;23486;51.956;5.888;2023-10-31T13:44:56;23.83;;;15.80;;
37641;SDS011;23486;51.956;5.888;2023-10-31T13:47:21;23.70;;;16.45;;
37641;SDS011;23486;51.956;5.888;2023-10-31T13:49:47;24.45;;;15.93;;
37641;SDS011;23486;51.956;5.888;2023-10-31T13:52:13;23.15;;;13.65;;
37641;SDS011;23486;51.956;5.888;2023-10-31T13:54:39;25.15;;;14.55;;
37641;SDS011;23486;51.956;5.888;2023-10-31T13:57:04;25.83;;;14.15;;
37641;SDS011;23486;51.956;5.888;2023-10-31T13:59:30;19.92;;;12.70;;
37641;SDS011;23486;51.956;5.888;2023-10-31T14:01:56;18.75;;;11.63;;
37641;SDS011;23486;51.956;5.888;2023-10-31T14:04:22;18.95;;;12.45;;
37641;SDS011;23486;51.956;5.888;2023-10-31T14:06:48;17.33;;;12.05;;
37641;SDS011;23486;51.956;5.888;2023-10-31T14:09:14;18.27;;;12.18;;
37641;SDS011;23486;51.956;5.888;2023-10-31T14:11:40;19.83;;;12.10;;
37641;SDS011;23486;51.956;5.888;2023-10-31T14:14:06;16.00;;;11.68;;
37641;SDS011;23486;51.956;5.888;2023-10-31T14:16:32;16.63;;;10.57;;
37641;SDS011;23486;51.956;5.888;2023-10-31T14:18:58;17.60;;;11.90;;
37641;SDS011;23486;51.956;5.888;2023-10-31T14:21:24;17.80;;;11.48;;
37641;SDS011;23486;51.956;5.888;2023-10-31T14:23:51;16.67;;;11.73;;
37641;SDS011;23486;51.956;5.888;2023-10-31T14:26:19;16.98;;;11.48;;
37641;SDS011;23486;51.956;5.888;2023-10-31T14:28:45;18.38;;;11.07;;
37641;SDS011;23486;51.956;5.888;2023-10-31T14:31:11;19.38;;;10.82;;
37641;SDS011;23486;51.956;5.888;2023-10-31T14:33:37;16.55;;;11.20;;